SHMÚ 65 rokov / 1954-2019 - Ďakujeme našim partnerom


SHMÚ vydal meteorologické výstrahy na Vietor na horách Display warnings

METAR

Aeronautical MET Report METAR

METAR description (Slovak)

14.10.2019 - 15:30 UTC

METAR LZIB 141530Z 16009KT CAVOK 22/12 Q1017 NOSIG=
METAR LZKZ 141530Z 18004KT CAVOK 19/11 Q1020 NOSIG=
METAR LZPP 141530Z 14006KT CAVOK 22/13 Q1018=
METAR LZSL 141530Z 32003KT CAVOK 19/12 Q1019=
METAR LZTT 141530Z VRB02KT CAVOK 17/12 Q1020 NOSIG=
METAR LZZI 141530Z 14003KT CAVOK 18/14 Q1018=

14.10.2019 - 15:00 UTC

METAR LZIB 141500Z 14010KT CAVOK 22/13 Q1017 NOSIG=
METAR LZKZ 141500Z 18006KT CAVOK 20/12 Q1020 NOSIG=
METAR LZPP 141500Z 14007KT CAVOK 22/13 Q1018=
METAR LZSL 141500Z VRB01KT CAVOK 21/12 Q1020=
METAR LZTT 141500Z 13004KT 100V160 CAVOK 19/13 Q1020 NOSIG=
METAR LZZI 141500Z 25003KT CAVOK 21/14 Q1018=

14.10.2019 - 15:00 UTC

METAR LZMC 141500Z 14008KT CAVOK 22/12 Q1018=
METAR LZPW 141500Z 14005KT CAVOK 20/10 Q1020=

 

 

skok na menu ↑


skok na začiatok stránky ↑